sensor_id;sensor_type;location;lat;lon;timestamp;P1;durP1;ratioP1;P2;durP2;ratioP2
63581;SDS011;49727;51.078;17.066;2022-10-16T00:11:41;11.82;;;6.53;;
63581;SDS011;49727;51.078;17.066;2022-10-16T00:26:42;8.48;;;5.47;;
63581;SDS011;49727;51.078;17.066;2022-10-16T00:41:43;7.38;;;5.35;;
63581;SDS011;49727;51.078;17.066;2022-10-16T00:56:43;6.85;;;5.47;;
63581;SDS011;49727;51.078;17.066;2022-10-16T01:12:06;8.10;;;5.45;;
63581;SDS011;49727;51.078;17.066;2022-10-16T01:42:19;8.05;;;4.82;;
63581;SDS011;49727;51.078;17.066;2022-10-16T01:57:24;7.45;;;5.50;;
63581;SDS011;49727;51.078;17.066;2022-10-16T02:12:27;7.28;;;5.13;;
63581;SDS011;49727;51.078;17.066;2022-10-16T02:42:53;11.05;;;6.68;;
63581;SDS011;49727;51.078;17.066;2022-10-16T02:57:54;7.72;;;5.55;;
63581;SDS011;49727;51.078;17.066;2022-10-16T03:12:55;10.77;;;6.18;;
63581;SDS011;49727;51.078;17.066;2022-10-16T03:27:55;9.50;;;6.05;;
63581;SDS011;49727;51.078;17.066;2022-10-16T03:42:55;9.60;;;6.60;;
63581;SDS011;49727;51.078;17.066;2022-10-16T03:57:57;10.32;;;7.38;;
63581;SDS011;49727;51.078;17.066;2022-10-16T04:12:57;10.15;;;7.18;;
63581;SDS011;49727;51.078;17.066;2022-10-16T04:27:58;8.02;;;5.47;;
63581;SDS011;49727;51.078;17.066;2022-10-16T04:42:58;7.25;;;5.47;;
63581;SDS011;49727;51.078;17.066;2022-10-16T04:57:59;8.43;;;5.68;;
63581;SDS011;49727;51.078;17.066;2022-10-16T05:12:59;9.98;;;6.22;;
63581;SDS011;49727;51.078;17.066;2022-10-16T05:27:59;8.38;;;5.15;;
63581;SDS011;49727;51.078;17.066;2022-10-16T05:43:00;7.47;;;5.60;;
63581;SDS011;49727;51.078;17.066;2022-10-16T05:58:00;10.07;;;6.15;;
63581;SDS011;49727;51.078;17.066;2022-10-16T06:13:01;9.23;;;5.60;;
63581;SDS011;49727;51.078;17.066;2022-10-16T06:28:01;8.63;;;6.28;;
63581;SDS011;49727;51.078;17.066;2022-10-16T06:43:01;10.30;;;6.50;;
63581;SDS011;49727;51.078;17.066;2022-10-16T06:58:02;8.77;;;5.13;;
63581;SDS011;49727;51.078;17.066;2022-10-16T07:13:02;5.82;;;3.83;;
63581;SDS011;49727;51.078;17.066;2022-10-16T07:28:02;4.57;;;2.90;;
63581;SDS011;49727;51.078;17.066;2022-10-16T07:43:03;6.10;;;3.70;;
63581;SDS011;49727;51.078;17.066;2022-10-16T07:58:05;7.07;;;3.00;;
63581;SDS011;49727;51.078;17.066;2022-10-16T08:13:06;4.28;;;2.65;;
63581;SDS011;49727;51.078;17.066;2022-10-16T08:28:07;4.13;;;2.80;;
63581;SDS011;49727;51.078;17.066;2022-10-16T08:58:28;3.80;;;2.35;;
63581;SDS011;49727;51.078;17.066;2022-10-16T09:14:06;4.32;;;3.05;;
63581;SDS011;49727;51.078;17.066;2022-10-16T09:29:08;5.18;;;2.15;;
63581;SDS011;49727;51.078;17.066;2022-10-16T09:59:20;3.13;;;2.00;;
63581;SDS011;49727;51.078;17.066;2022-10-16T10:29:44;3.50;;;1.20;;
63581;SDS011;49727;51.078;17.066;2022-10-16T11:00:12;1.43;;;1.03;;
63581;SDS011;49727;51.078;17.066;2022-10-16T11:15:23;2.43;;;1.10;;
63581;SDS011;49727;51.078;17.066;2022-10-16T11:30:30;1.37;;;1.10;;
63581;SDS011;49727;51.078;17.066;2022-10-16T11:45:39;3.30;;;2.20;;
63581;SDS011;49727;51.078;17.066;2022-10-16T12:31:12;5.30;;;2.50;;
63581;SDS011;49727;51.078;17.066;2022-10-16T13:31:55;7.13;;;4.45;;
63581;SDS011;49727;51.078;17.066;2022-10-16T13:47:02;5.67;;;3.97;;
63581;SDS011;49727;51.078;17.066;2022-10-16T14:02:20;7.28;;;3.55;;
63581;SDS011;49727;51.078;17.066;2022-10-16T14:17:28;5.30;;;3.83;;
63581;SDS011;49727;51.078;17.066;2022-10-16T14:32:31;3.87;;;2.70;;
63581;SDS011;49727;51.078;17.066;2022-10-16T14:47:31;5.07;;;2.42;;
63581;SDS011;49727;51.078;17.066;2022-10-16T15:02:32;6.05;;;4.40;;
63581;SDS011;49727;51.078;17.066;2022-10-16T15:17:34;5.68;;;4.32;;
63581;SDS011;49727;51.078;17.066;2022-10-16T15:32:34;10.52;;;5.85;;
63581;SDS011;49727;51.078;17.066;2022-10-16T15:47:35;7.80;;;5.83;;
63581;SDS011;49727;51.078;17.066;2022-10-16T16:02:35;18.65;;;9.63;;
63581;SDS011;49727;51.078;17.066;2022-10-16T16:17:36;39.22;;;23.48;;
63581;SDS011;49727;51.078;17.066;2022-10-16T16:32:36;21.33;;;13.48;;
63581;SDS011;49727;51.078;17.066;2022-10-16T16:47:37;19.08;;;12.43;;
63581;SDS011;49727;51.078;17.066;2022-10-16T17:02:38;23.43;;;12.47;;
63581;SDS011;49727;51.078;17.066;2022-10-16T17:17:43;15.82;;;10.07;;
63581;SDS011;49727;51.078;17.066;2022-10-16T17:32:43;15.95;;;10.60;;
63581;SDS011;49727;51.078;17.066;2022-10-16T17:47:43;14.63;;;10.63;;
63581;SDS011;49727;51.078;17.066;2022-10-16T18:02:44;16.45;;;11.15;;
63581;SDS011;49727;51.078;17.066;2022-10-16T18:17:44;17.50;;;11.13;;
63581;SDS011;49727;51.078;17.066;2022-10-16T18:32:45;17.90;;;12.95;;
63581;SDS011;49727;51.078;17.066;2022-10-16T18:47:45;19.92;;;14.23;;
63581;SDS011;49727;51.078;17.066;2022-10-16T19:02:46;19.55;;;13.95;;
63581;SDS011;49727;51.078;17.066;2022-10-16T19:17:46;27.85;;;18.77;;
63581;SDS011;49727;51.078;17.066;2022-10-16T19:32:46;18.50;;;13.88;;
63581;SDS011;49727;51.078;17.066;2022-10-16T19:47:48;18.97;;;13.97;;
63581;SDS011;49727;51.078;17.066;2022-10-16T20:02:48;19.90;;;15.32;;
63581;SDS011;49727;51.078;17.066;2022-10-16T20:17:49;21.77;;;15.20;;
63581;SDS011;49727;51.078;17.066;2022-10-16T20:32:49;21.20;;;16.30;;
63581;SDS011;49727;51.078;17.066;2022-10-16T20:47:50;23.80;;;16.48;;
63581;SDS011;49727;51.078;17.066;2022-10-16T21:02:50;22.92;;;16.65;;
63581;SDS011;49727;51.078;17.066;2022-10-16T21:17:51;22.20;;;17.17;;
63581;SDS011;49727;51.078;17.066;2022-10-16T21:32:52;26.85;;;18.15;;
63581;SDS011;49727;51.078;17.066;2022-10-16T21:47:52;26.77;;;18.05;;
63581;SDS011;49727;51.078;17.066;2022-10-16T22:02:52;27.30;;;17.38;;
63581;SDS011;49727;51.078;17.066;2022-10-16T22:17:53;23.58;;;16.23;;
63581;SDS011;49727;51.078;17.066;2022-10-16T22:32:53;31.58;;;20.15;;
63581;SDS011;49727;51.078;17.066;2022-10-16T22:47:53;30.17;;;20.15;;
63581;SDS011;49727;51.078;17.066;2022-10-16T23:02:54;30.95;;;20.65;;
63581;SDS011;49727;51.078;17.066;2022-10-16T23:17:54;33.58;;;21.30;;
63581;SDS011;49727;51.078;17.066;2022-10-16T23:32:54;29.48;;;18.63;;
63581;SDS011;49727;51.078;17.066;2022-10-16T23:47:55;33.13;;;23.42;;
